Aldebaran — FH9425 — position and weather

sailwx.info

Track history (hours):
 
Tides and Currents Weather Stations Pressure Air Temp Water Temp Dewpoint Dewpoint Depression Visibility Wind Speed Wind Dir Waves Ship Positions

Aldebaran

Last reported at 2017-Aug-16 15:14 UTC. Time now 2017-Nov-21 06:28 UTC.
Position N 47°32' W 002°54'.
Warning: this ship's position is months out of date.

Length 12 m.

Type: Sailing vessel. MMSI: 227168430.

Date/timePositionNaut miles runAvg speedWind from/ knotsBaromVisibWave heightAir tempDewpointWater temp
2017-Aug-16 15:14N 47°32' W 002°54'0 0.0
2017-Aug-16 14:56N 47°32' W 002°54'0 0.5
2017-Aug-16 14:30N 47°32' W 002°54'1 1.9
2017-Aug-16 14:00N 47°33' W 002°55'2 4.0
2017-Aug-16 13:30N 47°34' W 002°54'2 3.1
2017-Aug-16 13:00N 47°35' W 002°52'1 1.6
2017-Aug-16 12:21N 47°36' W 002°51'0 0.0
2017-Aug-16 09:14N 47°36' W 002°51'0 0.0
2017-Aug-16 08:56N 47°36' W 002°51'0 0.0
2017-Aug-14 10:58N 47°36' W 002°51'1 2.4
2017-Aug-14 10:30N 47°37' W 002°50'2 4.2
2017-Aug-14 10:01N 47°37' W 002°47'2 3.2
2017-Aug-14 09:30N 47°39' W 002°45'0 0.0
2017-Aug-13 15:21N 47°39' W 002°45'0 0.0
2017-Aug-12 09:37N 47°39' W 002°45'0 0.0
2017-Aug-12 09:28N 47°39' W 002°45'0 0.0
2017-Aug-12 08:58N 47°39' W 002°45'0 0.0
2017-Aug-12 08:28N 47°39' W 002°45'0 0.6
2017-Aug-12 07:59N 47°39' W 002°46'2 3.5
2017-Aug-12 07:30N 47°37' W 002°47'2 4.8
2017-Aug-12 07:00N 47°37' W 002°50'1 0.0
2017-Aug-11 13:03N 47°36' W 002°51'0 0.0
2017-Aug-11 13:00N 47°36' W 002°51'0 0.0
2017-Aug-11 12:30N 47°36' W 002°51'0 0.0
2017-Aug-11 12:00N 47°36' W 002°51'0 0.0
2017-Aug-11 09:50N 47°36' W 002°51'0 0.0
2017-Aug-11 09:29N 47°36' W 002°51'0 0.0
2017-Aug-10 15:10N 47°36' W 002°51'0 0.0
2017-Aug-10 14:58N 47°36' W 002°51'0 0.0
2017-Aug-10 14:28N 47°36' W 002°51'0 0.2
2017-Aug-10 13:58N 47°36' W 002°51'1 2.0
2017-Aug-10 13:30N 47°35' W 002°52'2 3.0
2017-Aug-10 13:00N 47°34' W 002°53'1 3.0
2017-Aug-10 12:30N 47°34' W 002°55'1 1.1
2017-Aug-10 12:00N 47°34' W 002°55'1 2.2
2017-Aug-10 11:30N 47°32' W 002°55'1 2.3
2017-Aug-10 11:00N 47°31' W 002°55'2 3.6
2017-Aug-10 10:30N 47°31' W 002°57'2 4.7
2017-Aug-10 10:00N 47°30' W 003°01'2 5.0
2017-Aug-10 09:30N 47°30' W 003°04'1 2.5
2017-Aug-10 09:01N 47°29' W 003°06'0 0.2
2017-Aug-10 08:27N 47°29' W 003°06'0 0.0
2017-Aug-10 08:01N 47°29' W 003°06'0 0.0
2017-Aug-08 11:34N 47°29' W 003°06'0 0.0
2017-Aug-08 11:19N 47°29' W 003°06'1 3.5
2017-Aug-08 11:00N 47°30' W 003°05'3 5.8
2017-Aug-08 10:30N 47°30' W 003°00'3 5.6
2017-Aug-08 10:00N 47°31' W 002°56'2 4.6
2017-Aug-08 09:30N 47°32' W 002°54'0 0.3
2017-Aug-08 09:00N 47°32' W 002°54'0 0.0
2017-Aug-08 08:30N 47°32' W 002°54'0 0.0
2017-Aug-08 07:59N 47°32' W 002°54'0 0.0
2017-Aug-07 20:14N 47°32' W 002°54'0 0.0
2017-Aug-07 19:59N 47°32' W 002°54'0 0.0
2017-Aug-07 19:26N 47°32' W 002°54'0 0.0
2017-Aug-07 18:59N 47°32' W 002°54'0 0.0
2017-Aug-07 18:29N 47°32' W 002°54'0 0.0
2017-Aug-07 17:59N 47°32' W 002°54'0 0.0
2017-Aug-07 17:29N 47°32' W 002°54'0 0.0
2017-Aug-07 16:59N 47°32' W 002°54'0 0.0
2017-Aug-07 16:29N 47°32' W 002°54'0 0.0
2017-Aug-07 15:59N 47°32' W 002°54'0 0.0
2017-Aug-07 15:25N 47°32' W 002°54'0 0.0
2017-Aug-07 14:56N 47°32' W 002°54'0 0.0
2017-Aug-07 14:28N 47°32' W 002°54'0 0.0
2017-Aug-07 13:58N 47°32' W 002°54'0 0.0
2017-Aug-07 13:28N 47°32' W 002°54'0 0.0
2017-Aug-07 12:58N 47°32' W 002°54'0 0.0
2017-Aug-07 12:28N 47°32' W 002°54'0 0.0
2017-Aug-07 11:58N 47°32' W 002°54'0 0.0
2017-Aug-07 11:24N 47°32' W 002°54'0 0.0
2017-Aug-07 10:57N 47°32' W 002°54'0 0.0
2017-Aug-07 10:30N 47°32' W 002°54'0 0.0
2017-Aug-07 09:58N 47°32' W 002°54'0 0.0
2017-Aug-07 09:30N 47°32' W 002°54'0 0.0
2017-Aug-07 08:59N 47°32' W 002°54'0 0.0
2017-Aug-07 08:17N 47°32' W 002°54'0 0.0
2017-Aug-07 07:56N 47°32' W 002°54'  
Track history (hours):
 
Tides and Currents Weather Stations Pressure Air Temp Water Temp Dewpoint Dewpoint Depression Visibility Wind Speed Wind Dir Waves Ship Positions

Aldebaran

Last reported at 2017-Aug-16 15:14 UTC. Time now 2017-Nov-21 06:28 UTC.
Position N 47°32' W 002°54'.
Warning: this ship's position is months out of date.

Length 12 m.

Type: Sailing vessel. MMSI: 227168430.

Date/timePositionNaut miles runAvg speedWind from/ knotsBaromVisibWave heightAir tempDewpointWater temp
2017-Aug-16 15:14N 47°32' W 002°54'0 0.0
2017-Aug-16 14:56N 47°32' W 002°54'0 0.5
2017-Aug-16 14:30N 47°32' W 002°54'1 1.9
2017-Aug-16 14:00N 47°33' W 002°55'2 4.0
2017-Aug-16 13:30N 47°34' W 002°54'2 3.1
2017-Aug-16 13:00N 47°35' W 002°52'1 1.6
2017-Aug-16 12:21N 47°36' W 002°51'0 0.0
2017-Aug-16 09:14N 47°36' W 002°51'0 0.0
2017-Aug-16 08:56N 47°36' W 002°51'0 0.0
2017-Aug-14 10:58N 47°36' W 002°51'1 2.4
2017-Aug-14 10:30N 47°37' W 002°50'2 4.2
2017-Aug-14 10:01N 47°37' W 002°47'2 3.2
2017-Aug-14 09:30N 47°39' W 002°45'0 0.0
2017-Aug-13 15:21N 47°39' W 002°45'0 0.0
2017-Aug-12 09:37N 47°39' W 002°45'0 0.0
2017-Aug-12 09:28N 47°39' W 002°45'0 0.0
2017-Aug-12 08:58N 47°39' W 002°45'0 0.0
2017-Aug-12 08:28N 47°39' W 002°45'0 0.6
2017-Aug-12 07:59N 47°39' W 002°46'2 3.5
2017-Aug-12 07:30N 47°37' W 002°47'2 4.8
2017-Aug-12 07:00N 47°37' W 002°50'1 0.0
2017-Aug-11 13:03N 47°36' W 002°51'0 0.0
2017-Aug-11 13:00N 47°36' W 002°51'0 0.0
2017-Aug-11 12:30N 47°36' W 002°51'0 0.0
2017-Aug-11 12:00N 47°36' W 002°51'0 0.0
2017-Aug-11 09:50N 47°36' W 002°51'0 0.0
2017-Aug-11 09:29N 47°36' W 002°51'0 0.0
2017-Aug-10 15:10N 47°36' W 002°51'0 0.0
2017-Aug-10 14:58N 47°36' W 002°51'0 0.0
2017-Aug-10 14:28N 47°36' W 002°51'0 0.2
2017-Aug-10 13:58N 47°36' W 002°51'1 2.0
2017-Aug-10 13:30N 47°35' W 002°52'2 3.0
2017-Aug-10 13:00N 47°34' W 002°53'1 3.0
2017-Aug-10 12:30N 47°34' W 002°55'1 1.1
2017-Aug-10 12:00N 47°34' W 002°55'1 2.2
2017-Aug-10 11:30N 47°32' W 002°55'1 2.3
2017-Aug-10 11:00N 47°31' W 002°55'2 3.6
2017-Aug-10 10:30N 47°31' W 002°57'2 4.7
2017-Aug-10 10:00N 47°30' W 003°01'2 5.0
2017-Aug-10 09:30N 47°30' W 003°04'1 2.5
2017-Aug-10 09:01N 47°29' W 003°06'0 0.2
2017-Aug-10 08:27N 47°29' W 003°06'0 0.0
2017-Aug-10 08:01N 47°29' W 003°06'0 0.0
2017-Aug-08 11:34N 47°29' W 003°06'0 0.0
2017-Aug-08 11:19N 47°29' W 003°06'1 3.5
2017-Aug-08 11:00N 47°30' W 003°05'3 5.8
2017-Aug-08 10:30N 47°30' W 003°00'3 5.6
2017-Aug-08 10:00N 47°31' W 002°56'2 4.6
2017-Aug-08 09:30N 47°32' W 002°54'0 0.3
2017-Aug-08 09:00N 47°32' W 002°54'0 0.0
2017-Aug-08 08:30N 47°32' W 002°54'0 0.0
2017-Aug-08 07:59N 47°32' W 002°54'0 0.0
2017-Aug-07 20:14N 47°32' W 002°54'0 0.0
2017-Aug-07 19:59N 47°32' W 002°54'0 0.0
2017-Aug-07 19:26N 47°32' W 002°54'0 0.0
2017-Aug-07 18:59N 47°32' W 002°54'0 0.0
2017-Aug-07 18:29N 47°32' W 002°54'0 0.0
2017-Aug-07 17:59N 47°32' W 002°54'0 0.0
2017-Aug-07 17:29N 47°32' W 002°54'0 0.0
2017-Aug-07 16:59N 47°32' W 002°54'0 0.0
2017-Aug-07 16:29N 47°32' W 002°54'0 0.0
2017-Aug-07 15:59N 47°32' W 002°54'0 0.0
2017-Aug-07 15:25N 47°32' W 002°54'0 0.0
2017-Aug-07 14:56N 47°32' W 002°54'0 0.0
2017-Aug-07 14:28N 47°32' W 002°54'0 0.0
2017-Aug-07 13:58N 47°32' W 002°54'0 0.0
2017-Aug-07 13:28N 47°32' W 002°54'0 0.0
2017-Aug-07 12:58N 47°32' W 002°54'0 0.0
2017-Aug-07 12:28N 47°32' W 002°54'0 0.0
2017-Aug-07 11:58N 47°32' W 002°54'0 0.0
2017-Aug-07 11:24N 47°32' W 002°54'0 0.0
2017-Aug-07 10:57N 47°32' W 002°54'0 0.0
2017-Aug-07 10:30N 47°32' W 002°54'0 0.0
2017-Aug-07 09:58N 47°32' W 002°54'0 0.0
2017-Aug-07 09:30N 47°32' W 002°54'0 0.0
2017-Aug-07 08:59N 47°32' W 002°54'0 0.0
2017-Aug-07 08:17N 47°32' W 002°54'0 0.0
2017-Aug-07 07:56N 47°32' W 002°54'  

Dump ship's entire track history